<?xml version="1.0" encoding="UTF-8" standalone="no" ?>
<gpx xmlns="http://www.topografix.com/GPX/1/1" xmlns:xsi="http://www.w3.org/2001/XMLSchema-instance" xsi:schemaLocation="http://www.topografix.com/GPX/1/1 http://www.topografix.com/GPX/1/1/gpx.xsd" version="1.1" creator="VisuGPX - https://www.visugpx.com">
  <metadata>
    <name>vtt 1-12-2011 farnay ramml</name>
    <desc><![CDATA[vtt malak ]]></desc>
  </metadata>
  <wpt lat="43.50217" lon="6.82181">
    <ele>581</ele>
    <name><![CDATA[001]]></name>
    <desc><![CDATA[05-AOU-10 10:44:22]]></desc>
    <cmt><![CDATA[05-AOU-10 10:44:22]]></cmt>
  </wpt>
  <wpt lat="43.5114" lon="6.79091">
    <ele>176</ele>
    <name><![CDATA[002]]></name>
    <desc><![CDATA[07-AOU-10 10:01:45]]></desc>
    <cmt><![CDATA[07-AOU-10 10:01:45]]></cmt>
  </wpt>
  <trk>
    <name><![CDATA[ACTIVE LOG 001]]></name>
    <trkseg>
      <trkpt lat="45.49163" lon="4.59732">
        <ele>454</ele>
        <time>2011-11-26T09:10:53Z</time>
      </trkpt>
      <trkpt lat="45.49079" lon="4.59689">
        <ele>457</ele>
        <time>2011-11-26T09:12:45Z</time>
      </trkpt>
      <trkpt lat="45.48989" lon="4.59665">
        <ele>461</ele>
        <time>2011-11-26T09:13:17Z</time>
      </trkpt>
      <trkpt lat="45.48928" lon="4.59754">
        <ele>462</ele>
        <time>2011-11-26T09:13:46Z</time>
      </trkpt>
      <trkpt lat="45.48849" lon="4.59819">
        <ele>466</ele>
        <time>2011-11-26T09:14:10Z</time>
      </trkpt>
      <trkpt lat="45.48768" lon="4.59878">
        <ele>465</ele>
        <time>2011-11-26T09:14:32Z</time>
      </trkpt>
      <trkpt lat="45.4868" lon="4.59923">
        <ele>470</ele>
        <time>2011-11-26T09:14:58Z</time>
      </trkpt>
      <trkpt lat="45.48591" lon="4.59937">
        <ele>476</ele>
        <time>2011-11-26T09:15:34Z</time>
      </trkpt>
      <trkpt lat="45.48509" lon="4.59985">
        <ele>481</ele>
        <time>2011-11-26T09:16:04Z</time>
      </trkpt>
      <trkpt lat="45.48428" lon="4.60044">
        <ele>488</ele>
        <time>2011-11-26T09:16:44Z</time>
      </trkpt>
      <trkpt lat="45.48367" lon="4.60139">
        <ele>502</ele>
        <time>2011-11-26T09:17:37Z</time>
      </trkpt>
      <trkpt lat="45.4834" lon="4.60266">
        <ele>502</ele>
        <time>2011-11-26T09:18:28Z</time>
      </trkpt>
      <trkpt lat="45.48289" lon="4.60374">
        <ele>506</ele>
        <time>2011-11-26T09:18:58Z</time>
      </trkpt>
      <trkpt lat="45.4822" lon="4.60453">
        <ele>499</ele>
        <time>2011-11-26T09:19:16Z</time>
      </trkpt>
      <trkpt lat="45.48135" lon="4.60406">
        <ele>512</ele>
        <time>2011-11-26T09:19:34Z</time>
      </trkpt>
      <trkpt lat="45.4805" lon="4.60441">
        <ele>506</ele>
        <time>2011-11-26T09:19:58Z</time>
      </trkpt>
      <trkpt lat="45.47977" lon="4.60472">
        <ele>513</ele>
        <time>2011-11-26T09:20:23Z</time>
      </trkpt>
      <trkpt lat="45.47898" lon="4.60537">
        <ele>510</ele>
        <time>2011-11-26T09:20:48Z</time>
      </trkpt>
      <trkpt lat="45.47809" lon="4.60549">
        <ele>511</ele>
        <time>2011-11-26T09:21:12Z</time>
      </trkpt>
      <trkpt lat="45.4772" lon="4.60526">
        <ele>511</ele>
        <time>2011-11-26T09:21:36Z</time>
      </trkpt>
      <trkpt lat="45.47643" lon="4.60455">
        <ele>524</ele>
        <time>2011-11-26T09:22:00Z</time>
      </trkpt>
      <trkpt lat="45.47568" lon="4.60382">
        <ele>533</ele>
        <time>2011-11-26T09:22:24Z</time>
      </trkpt>
      <trkpt lat="45.47516" lon="4.60381">
        <ele>535</ele>
        <time>2011-11-26T09:22:50Z</time>
      </trkpt>
      <trkpt lat="45.4754" lon="4.60503">
        <ele>523</ele>
        <time>2011-11-26T09:23:16Z</time>
      </trkpt>
      <trkpt lat="45.47474" lon="4.60587">
        <ele>529</ele>
        <time>2011-11-26T09:23:45Z</time>
      </trkpt>
      <trkpt lat="45.47395" lon="4.60649">
        <ele>538</ele>
        <time>2011-11-26T09:24:16Z</time>
      </trkpt>
      <trkpt lat="45.47308" lon="4.60693">
        <ele>542</ele>
        <time>2011-11-26T09:24:46Z</time>
      </trkpt>
      <trkpt lat="45.47226" lon="4.60742">
        <ele>552</ele>
        <time>2011-11-26T09:25:16Z</time>
      </trkpt>
      <trkpt lat="45.47308" lon="4.60792">
        <ele>539</ele>
        <time>2011-11-26T09:25:35Z</time>
      </trkpt>
      <trkpt lat="45.47391" lon="4.60849">
        <ele>539</ele>
        <time>2011-11-26T09:25:52Z</time>
      </trkpt>
      <trkpt lat="45.47466" lon="4.60917">
        <ele>539</ele>
        <time>2011-11-26T09:26:13Z</time>
      </trkpt>
      <trkpt lat="45.47471" lon="4.61032">
        <ele>541</ele>
        <time>2011-11-26T09:26:34Z</time>
      </trkpt>
      <trkpt lat="45.47537" lon="4.61119">
        <ele>535</ele>
        <time>2011-11-26T09:26:54Z</time>
      </trkpt>
      <trkpt lat="45.4759" lon="4.61221">
        <ele>538</ele>
        <time>2011-11-26T09:27:23Z</time>
      </trkpt>
      <trkpt lat="45.47595" lon="4.61355">
        <ele>556</ele>
        <time>2011-11-26T09:27:59Z</time>
      </trkpt>
      <trkpt lat="45.47666" lon="4.61309">
        <ele>544</ele>
        <time>2011-11-26T09:28:24Z</time>
      </trkpt>
      <trkpt lat="45.47736" lon="4.61225">
        <ele>535</ele>
        <time>2011-11-26T09:28:44Z</time>
      </trkpt>
      <trkpt lat="45.47816" lon="4.61153">
        <ele>533</ele>
        <time>2011-11-26T09:29:07Z</time>
      </trkpt>
      <trkpt lat="45.47904" lon="4.61115">
        <ele>533</ele>
        <time>2011-11-26T09:29:26Z</time>
      </trkpt>
      <trkpt lat="45.47995" lon="4.61121">
        <ele>532</ele>
        <time>2011-11-26T09:29:43Z</time>
      </trkpt>
      <trkpt lat="45.48086" lon="4.61135">
        <ele>528</ele>
        <time>2011-11-26T09:30:03Z</time>
      </trkpt>
      <trkpt lat="45.48175" lon="4.61161">
        <ele>526</ele>
        <time>2011-11-26T09:30:25Z</time>
      </trkpt>
      <trkpt lat="45.48256" lon="4.61219">
        <ele>530</ele>
        <time>2011-11-26T09:30:48Z</time>
      </trkpt>
      <trkpt lat="45.48339" lon="4.61282">
        <ele>535</ele>
        <time>2011-11-26T09:31:19Z</time>
      </trkpt>
      <trkpt lat="45.48429" lon="4.61251">
        <ele>541</ele>
        <time>2011-11-26T09:32:02Z</time>
      </trkpt>
      <trkpt lat="45.48514" lon="4.61223">
        <ele>546</ele>
        <time>2011-11-26T09:32:44Z</time>
      </trkpt>
      <trkpt lat="45.486" lon="4.61193">
        <ele>550</ele>
        <time>2011-11-26T09:33:27Z</time>
      </trkpt>
      <trkpt lat="45.48689" lon="4.61188">
        <ele>553</ele>
        <time>2011-11-26T09:34:04Z</time>
      </trkpt>
      <trkpt lat="45.48779" lon="4.61187">
        <ele>554</ele>
        <time>2011-11-26T09:34:31Z</time>
      </trkpt>
      <trkpt lat="45.4887" lon="4.61171">
        <ele>552</ele>
        <time>2011-11-26T09:35:04Z</time>
      </trkpt>
      <trkpt lat="45.48962" lon="4.61137">
        <ele>556</ele>
        <time>2011-11-26T09:35:29Z</time>
      </trkpt>
      <trkpt lat="45.49052" lon="4.6112">
        <ele>554</ele>
        <time>2011-11-26T09:35:50Z</time>
      </trkpt>
      <trkpt lat="45.49133" lon="4.61159">
        <ele>556</ele>
        <time>2011-11-26T09:36:13Z</time>
      </trkpt>
      <trkpt lat="45.49203" lon="4.61245">
        <ele>561</ele>
        <time>2011-11-26T09:36:43Z</time>
      </trkpt>
      <trkpt lat="45.49289" lon="4.61308">
        <ele>558</ele>
        <time>2011-11-26T09:37:09Z</time>
      </trkpt>
      <trkpt lat="45.49379" lon="4.61332">
        <ele>551</ele>
        <time>2011-11-26T09:37:28Z</time>
      </trkpt>
      <trkpt lat="45.49469" lon="4.61354">
        <ele>533</ele>
        <time>2011-11-26T09:37:47Z</time>
      </trkpt>
      <trkpt lat="45.49554" lon="4.61404">
        <ele>525</ele>
        <time>2011-11-26T09:38:11Z</time>
      </trkpt>
      <trkpt lat="45.49642" lon="4.61432">
        <ele>516</ele>
        <time>2011-11-26T09:38:28Z</time>
      </trkpt>
      <trkpt lat="45.49734" lon="4.61433">
        <ele>509</ele>
        <time>2011-11-26T09:38:45Z</time>
      </trkpt>
      <trkpt lat="45.49822" lon="4.61478">
        <ele>502</ele>
        <time>2011-11-26T09:39:02Z</time>
      </trkpt>
      <trkpt lat="45.49913" lon="4.61515">
        <ele>492</ele>
        <time>2011-11-26T09:39:17Z</time>
      </trkpt>
      <trkpt lat="45.50001" lon="4.61558">
        <ele>476</ele>
        <time>2011-11-26T09:39:31Z</time>
      </trkpt>
      <trkpt lat="45.50092" lon="4.61587">
        <ele>467</ele>
        <time>2011-11-26T09:39:50Z</time>
      </trkpt>
      <trkpt lat="45.50176" lon="4.61649">
        <ele>454</ele>
        <time>2011-11-26T09:40:07Z</time>
      </trkpt>
      <trkpt lat="45.50264" lon="4.61676">
        <ele>443</ele>
        <time>2011-11-26T09:40:28Z</time>
      </trkpt>
      <trkpt lat="45.50355" lon="4.61707">
        <ele>429</ele>
        <time>2011-11-26T09:40:45Z</time>
      </trkpt>
      <trkpt lat="45.50443" lon="4.61746">
        <ele>421</ele>
        <time>2011-11-26T09:41:05Z</time>
      </trkpt>
      <trkpt lat="45.50516" lon="4.61824">
        <ele>418</ele>
        <time>2011-11-26T09:41:30Z</time>
      </trkpt>
      <trkpt lat="45.50494" lon="4.61946">
        <ele>424</ele>
        <time>2011-11-26T09:42:08Z</time>
      </trkpt>
      <trkpt lat="45.50491" lon="4.62073">
        <ele>420</ele>
        <time>2011-11-26T09:42:37Z</time>
      </trkpt>
      <trkpt lat="45.50498" lon="4.62195">
        <ele>412</ele>
        <time>2011-11-26T09:43:00Z</time>
      </trkpt>
      <trkpt lat="45.5041" lon="4.62205">
        <ele>417</ele>
        <time>2011-11-26T09:43:26Z</time>
      </trkpt>
      <trkpt lat="45.5032" lon="4.62209">
        <ele>424</ele>
        <time>2011-11-26T09:43:56Z</time>
      </trkpt>
      <trkpt lat="45.50244" lon="4.62277">
        <ele>430</ele>
        <time>2011-11-26T09:44:37Z</time>
      </trkpt>
      <trkpt lat="45.50188" lon="4.62377">
        <ele>428</ele>
        <time>2011-11-26T09:45:22Z</time>
      </trkpt>
      <trkpt lat="45.50112" lon="4.62444">
        <ele>430</ele>
        <time>2011-11-26T09:45:55Z</time>
      </trkpt>
      <trkpt lat="45.50024" lon="4.62415">
        <ele>432</ele>
        <time>2011-11-26T09:46:17Z</time>
      </trkpt>
      <trkpt lat="45.49939" lon="4.62361">
        <ele>431</ele>
        <time>2011-11-26T09:46:33Z</time>
      </trkpt>
      <trkpt lat="45.49875" lon="4.62272">
        <ele>424</ele>
        <time>2011-11-26T09:46:50Z</time>
      </trkpt>
      <trkpt lat="45.49821" lon="4.62167">
        <ele>430</ele>
        <time>2011-11-26T09:47:05Z</time>
      </trkpt>
      <trkpt lat="45.49741" lon="4.6214">
        <ele>429</ele>
        <time>2011-11-26T09:47:27Z</time>
      </trkpt>
      <trkpt lat="45.4965" lon="4.62133">
        <ele>429</ele>
        <time>2011-11-26T09:47:56Z</time>
      </trkpt>
      <trkpt lat="45.49558" lon="4.6212">
        <ele>419</ele>
        <time>2011-11-26T09:48:18Z</time>
      </trkpt>
      <trkpt lat="45.49502" lon="4.6202">
        <ele>425</ele>
        <time>2011-11-26T09:48:34Z</time>
      </trkpt>
      <trkpt lat="45.49457" lon="4.61903">
        <ele>430</ele>
        <time>2011-11-26T09:48:51Z</time>
      </trkpt>
      <trkpt lat="45.494" lon="4.61871">
        <ele>432</ele>
        <time>2011-11-26T09:49:14Z</time>
      </trkpt>
      <trkpt lat="45.49359" lon="4.61997">
        <ele>422</ele>
        <time>2011-11-26T09:49:40Z</time>
      </trkpt>
      <trkpt lat="45.49281" lon="4.62069">
        <ele>423</ele>
        <time>2011-11-26T09:50:07Z</time>
      </trkpt>
      <trkpt lat="45.49193" lon="4.62051">
        <ele>425</ele>
        <time>2011-11-26T09:50:34Z</time>
      </trkpt>
      <trkpt lat="45.49125" lon="4.6197">
        <ele>430</ele>
        <time>2011-11-26T09:51:06Z</time>
      </trkpt>
      <trkpt lat="45.49069" lon="4.61871">
        <ele>429</ele>
        <time>2011-11-26T09:51:39Z</time>
      </trkpt>
      <trkpt lat="45.49029" lon="4.61756">
        <ele>434</ele>
        <time>2011-11-26T09:52:02Z</time>
      </trkpt>
      <trkpt lat="45.48973" lon="4.61729">
        <ele>438</ele>
        <time>2011-11-26T09:52:24Z</time>
      </trkpt>
      <trkpt lat="45.48886" lon="4.61757">
        <ele>433</ele>
        <time>2011-11-26T09:52:56Z</time>
      </trkpt>
      <trkpt lat="45.4881" lon="4.61708">
        <ele>448</ele>
        <time>2011-11-26T09:53:25Z</time>
      </trkpt>
      <trkpt lat="45.48721" lon="4.61723">
        <ele>450</ele>
        <time>2011-11-26T09:53:51Z</time>
      </trkpt>
      <trkpt lat="45.48629" lon="4.61708">
        <ele>457</ele>
        <time>2011-11-26T09:54:11Z</time>
      </trkpt>
      <trkpt lat="45.4865" lon="4.61802">
        <ele>457</ele>
        <time>2011-11-26T09:54:38Z</time>
      </trkpt>
      <trkpt lat="45.48703" lon="4.61908">
        <ele>453</ele>
        <time>2011-11-26T09:55:10Z</time>
      </trkpt>
      <trkpt lat="45.48751" lon="4.62024">
        <ele>453</ele>
        <time>2011-11-26T09:55:42Z</time>
      </trkpt>
      <trkpt lat="45.48746" lon="4.62148">
        <ele>460</ele>
        <time>2011-11-26T09:56:04Z</time>
      </trkpt>
      <trkpt lat="45.48672" lon="4.62222">
        <ele>453</ele>
        <time>2011-11-26T09:56:20Z</time>
      </trkpt>
      <trkpt lat="45.48605" lon="4.62305">
        <ele>453</ele>
        <time>2011-11-26T09:56:35Z</time>
      </trkpt>
      <trkpt lat="45.48596" lon="4.62431">
        <ele>440</ele>
        <time>2011-11-26T09:56:52Z</time>
      </trkpt>
      <trkpt lat="45.48611" lon="4.62516">
        <ele>430</ele>
        <time>2011-11-26T09:57:11Z</time>
      </trkpt>
      <trkpt lat="45.48657" lon="4.62526">
        <ele>426</ele>
        <time>2011-11-26T09:57:44Z</time>
      </trkpt>
      <trkpt lat="45.48701" lon="4.62568">
        <ele>410</ele>
        <time>2011-11-26T09:58:15Z</time>
      </trkpt>
      <trkpt lat="45.48726" lon="4.62682">
        <ele>386</ele>
        <time>2011-11-26T09:58:48Z</time>
      </trkpt>
      <trkpt lat="45.48779" lon="4.62703">
        <ele>371</ele>
        <time>2011-11-26T09:59:27Z</time>
      </trkpt>
      <trkpt lat="45.488" lon="4.6281">
        <ele>366</ele>
        <time>2011-11-26T10:00:05Z</time>
      </trkpt>
      <trkpt lat="45.48862" lon="4.62749">
        <ele>366</ele>
        <time>2011-11-26T10:00:48Z</time>
      </trkpt>
      <trkpt lat="45.48842" lon="4.62626">
        <ele>366</ele>
        <time>2011-11-26T10:01:32Z</time>
      </trkpt>
      <trkpt lat="45.48889" lon="4.62529">
        <ele>372</ele>
        <time>2011-11-26T10:02:05Z</time>
      </trkpt>
      <trkpt lat="45.48981" lon="4.62525">
        <ele>365</ele>
        <time>2011-11-26T10:02:33Z</time>
      </trkpt>
      <trkpt lat="45.49065" lon="4.62549">
        <ele>358</ele>
        <time>2011-11-26T10:03:01Z</time>
      </trkpt>
      <trkpt lat="45.49078" lon="4.62419">
        <ele>359</ele>
        <time>2011-11-26T10:03:24Z</time>
      </trkpt>
      <trkpt lat="45.49094" lon="4.62304">
        <ele>369</ele>
        <time>2011-11-26T10:03:47Z</time>
      </trkpt>
      <trkpt lat="45.49167" lon="4.62307">
        <ele>363</ele>
        <time>2011-11-26T10:04:11Z</time>
      </trkpt>
      <trkpt lat="45.49258" lon="4.62292">
        <ele>367</ele>
        <time>2011-11-26T10:04:34Z</time>
      </trkpt>
      <trkpt lat="45.4933" lon="4.62367">
        <ele>356</ele>
        <time>2011-11-26T10:04:56Z</time>
      </trkpt>
      <trkpt lat="45.49405" lon="4.62317">
        <ele>362</ele>
        <time>2011-11-26T10:05:18Z</time>
      </trkpt>
      <trkpt lat="45.49443" lon="4.62378">
        <ele>363</ele>
        <time>2011-11-26T10:05:40Z</time>
      </trkpt>
      <trkpt lat="45.49501" lon="4.62468">
        <ele>361</ele>
        <time>2011-11-26T10:06:03Z</time>
      </trkpt>
      <trkpt lat="45.49592" lon="4.62484">
        <ele>361</ele>
        <time>2011-11-26T10:06:26Z</time>
      </trkpt>
      <trkpt lat="45.49671" lon="4.62466">
        <ele>367</ele>
        <time>2011-11-26T10:06:49Z</time>
      </trkpt>
      <trkpt lat="45.49729" lon="4.62537">
        <ele>360</ele>
        <time>2011-11-26T10:07:14Z</time>
      </trkpt>
      <trkpt lat="45.49805" lon="4.62604">
        <ele>362</ele>
        <time>2011-11-26T10:07:39Z</time>
      </trkpt>
      <trkpt lat="45.49859" lon="4.62708">
        <ele>363</ele>
        <time>2011-11-26T10:08:18Z</time>
      </trkpt>
      <trkpt lat="45.49869" lon="4.6269">
        <ele>364</ele>
        <time>2011-11-26T10:09:34Z</time>
      </trkpt>
      <trkpt lat="45.49854" lon="4.6261">
        <ele>371</ele>
        <time>2011-11-26T10:10:13Z</time>
      </trkpt>
      <trkpt lat="45.4991" lon="4.62707">
        <ele>366</ele>
        <time>2011-11-26T10:10:55Z</time>
      </trkpt>
      <trkpt lat="45.49991" lon="4.62755">
        <ele>373</ele>
        <time>2011-11-26T10:11:37Z</time>
      </trkpt>
      <trkpt lat="45.50083" lon="4.62771">
        <ele>382</ele>
        <time>2011-11-26T10:12:19Z</time>
      </trkpt>
      <trkpt lat="45.50168" lon="4.62727">
        <ele>393</ele>
        <time>2011-11-26T10:13:00Z</time>
      </trkpt>
      <trkpt lat="45.50244" lon="4.62658">
        <ele>398</ele>
        <time>2011-11-26T10:13:35Z</time>
      </trkpt>
      <trkpt lat="45.50305" lon="4.62563">
        <ele>401</ele>
        <time>2011-11-26T10:14:04Z</time>
      </trkpt>
      <trkpt lat="45.5036" lon="4.62458">
        <ele>398</ele>
        <time>2011-11-26T10:14:27Z</time>
      </trkpt>
      <trkpt lat="45.50398" lon="4.62343">
        <ele>402</ele>
        <time>2011-11-26T10:14:46Z</time>
      </trkpt>
      <trkpt lat="45.50469" lon="4.62267">
        <ele>405</ele>
        <time>2011-11-26T10:15:14Z</time>
      </trkpt>
      <trkpt lat="45.50506" lon="4.62181">
        <ele>410</ele>
        <time>2011-11-26T10:15:54Z</time>
      </trkpt>
      <trkpt lat="45.50488" lon="4.6206">
        <ele>421</ele>
        <time>2011-11-26T10:16:43Z</time>
      </trkpt>
      <trkpt lat="45.50496" lon="4.61935">
        <ele>424</ele>
        <time>2011-11-26T10:17:21Z</time>
      </trkpt>
      <trkpt lat="45.50523" lon="4.61813">
        <ele>416</ele>
        <time>2011-11-26T10:17:45Z</time>
      </trkpt>
      <trkpt lat="45.50489" lon="4.61698">
        <ele>416</ele>
        <time>2011-11-26T10:18:05Z</time>
      </trkpt>
      <trkpt lat="45.50432" lon="4.61597">
        <ele>410</ele>
        <time>2011-11-26T10:18:22Z</time>
      </trkpt>
      <trkpt lat="45.50381" lon="4.61494">
        <ele>404</ele>
        <time>2011-11-26T10:18:33Z</time>
      </trkpt>
      <trkpt lat="45.50304" lon="4.61425">
        <ele>411</ele>
        <time>2011-11-26T10:18:55Z</time>
      </trkpt>
      <trkpt lat="45.50225" lon="4.61358">
        <ele>415</ele>
        <time>2011-11-26T10:19:23Z</time>
      </trkpt>
      <trkpt lat="45.50148" lon="4.61292">
        <ele>420</ele>
        <time>2011-11-26T10:19:50Z</time>
      </trkpt>
      <trkpt lat="45.50064" lon="4.61253">
        <ele>427</ele>
        <time>2011-11-26T10:20:23Z</time>
      </trkpt>
      <trkpt lat="45.49977" lon="4.6122">
        <ele>434</ele>
        <time>2011-11-26T10:20:56Z</time>
      </trkpt>
      <trkpt lat="45.49964" lon="4.61101">
        <ele>428</ele>
        <time>2011-11-26T10:21:17Z</time>
      </trkpt>
      <trkpt lat="45.49901" lon="4.61008">
        <ele>433</ele>
        <time>2011-11-26T10:21:42Z</time>
      </trkpt>
      <trkpt lat="45.49863" lon="4.60889">
        <ele>426</ele>
        <time>2011-11-26T10:22:06Z</time>
      </trkpt>
      <trkpt lat="45.49847" lon="4.60761">
        <ele>418</ele>
        <time>2011-11-26T10:22:28Z</time>
      </trkpt>
      <trkpt lat="45.49788" lon="4.60668">
        <ele>415</ele>
        <time>2011-11-26T10:22:50Z</time>
      </trkpt>
      <trkpt lat="45.49736" lon="4.60564">
        <ele>401</ele>
        <time>2011-11-26T10:23:11Z</time>
      </trkpt>
      <trkpt lat="45.49665" lon="4.6048">
        <ele>391</ele>
        <time>2011-11-26T10:23:41Z</time>
      </trkpt>
      <trkpt lat="45.49581" lon="4.60414">
        <ele>385</ele>
        <time>2011-11-26T10:24:10Z</time>
      </trkpt>
      <trkpt lat="45.49488" lon="4.6036">
        <ele>390</ele>
        <time>2011-11-26T10:24:33Z</time>
      </trkpt>
      <trkpt lat="45.49398" lon="4.60292">
        <ele>390</ele>
        <time>2011-11-26T10:24:59Z</time>
      </trkpt>
      <trkpt lat="45.49379" lon="4.6023">
        <ele>394</ele>
        <time>2011-11-26T10:26:43Z</time>
      </trkpt>
      <trkpt lat="45.49459" lon="4.60208">
        <ele>398</ele>
        <time>2011-11-26T10:28:33Z</time>
      </trkpt>
      <trkpt lat="45.49541" lon="4.60171">
        <ele>404</ele>
        <time>2011-11-26T10:30:16Z</time>
      </trkpt>
      <trkpt lat="45.49547" lon="4.60041">
        <ele>418</ele>
        <time>2011-11-26T10:31:16Z</time>
      </trkpt>
      <trkpt lat="45.49522" lon="4.59921">
        <ele>427</ele>
        <time>2011-11-26T10:32:18Z</time>
      </trkpt>
      <trkpt lat="45.49482" lon="4.59811">
        <ele>438</ele>
        <time>2011-11-26T10:33:12Z</time>
      </trkpt>
      <trkpt lat="45.49399" lon="4.5976">
        <ele>447</ele>
        <time>2011-11-26T10:33:59Z</time>
      </trkpt>
      <trkpt lat="45.49314" lon="4.59714">
        <ele>451</ele>
        <time>2011-11-26T10:34:38Z</time>
      </trkpt>
      <trkpt lat="45.49236" lon="4.59742">
        <ele>455</ele>
        <time>2011-11-26T10:35:16Z</time>
      </trkpt>
      <trkpt lat="45.49164" lon="4.59722">
        <ele>454</ele>
        <time>2011-11-26T10:36:23Z</time>
      </trkpt>
    </trkseg>
  </trk>
  <rte>
    <name><![CDATA[Hauteur de 56]]></name>
      <rtept lat="45.58016" lon="4.59378">
        <ele>561</ele>
        <name><![CDATA[Hauteur de 560 m]]></name>
      </rtept>
    </rte>
  <rte>
    <name><![CDATA[La Grand-Croi]]></name>
      <rtept lat="45.56062" lon="4.59027">
        <ele>507</ele>
        <name><![CDATA[La Grand-Croix]]></name>
      </rtept>
      <rtept lat="45.56689" lon="4.58939">
        <ele>508</ele>
        <name><![CDATA[D77 et Route]]></name>
      </rtept>
      <rtept lat="45.56837" lon="4.59312">
        <ele>470</ele>
        <name><![CDATA[Route et Chemin]]></name>
      </rtept>
      <rtept lat="45.56726" lon="4.59432">
        <ele>462</ele>
        <name><![CDATA[Route]]></name>
      </rtept>
      <rtept lat="45.56916" lon="4.59879">
        <ele>437</ele>
        <name><![CDATA[Route et Sentier]]></name>
      </rtept>
      <rtept lat="45.57088" lon="4.59235">
        <ele>428</ele>
        <name><![CDATA[Route et Chemin1]]></name>
      </rtept>
      <rtept lat="45.5715" lon="4.58629">
        <ele>437</ele>
        <name><![CDATA[Le Grand Bozançon]]></name>
      </rtept>
      <rtept lat="45.57427" lon="4.58252">
        <ele>476</ele>
        <name><![CDATA[Sentier]]></name>
      </rtept>
    </rte>
</gpx>